Time;durP1;ratioP1;P1;durP2;ratioP2;P2;SDS_P1;SDS_P2;PMS_P1;PMS_P2;Temp;Humidity;BMP_temperature;BMP_pressure;BME280_temperature;BME280_humidity;BME280_pressure;Samples;Min_cycle;Max_cycle;Signal;HPM_P1;HPM_P2
2023/12/30 00:01:55;;;;;;;35.07;19.40;;;;;;;;;;5112443;28;20552;-79
2023/12/30 00:04:22;;;;;;;26.00;15.53;;;;;;;;;;5112156;28;20199;-80
2023/12/30 00:06:49;;;;;;;14.57;9.97;;;;;;;;;;5112486;28;20642;-80
2023/12/30 00:09:17;;;;;;;15.60;9.43;;;;;;;;;;5112747;28;20232;-80
2023/12/30 00:11:44;;;;;;;26.13;15.47;;;;;;;;;;5112532;28;20192;-80
2023/12/30 00:14:11;;;;;;;29.37;17.00;;;;;;;;;;5112072;28;20720;-80
2023/12/30 00:16:39;;;;;;;23.27;13.40;;;;;;;;;;5112680;28;20260;-80
2023/12/30 00:19:06;;;;;;;11.43;8.00;;;;;;;;;;5112145;28;20273;-80
2023/12/30 00:21:32;;;;;;;9.27;6.90;;;;;;;;;;5115432;28;20195;-80
2023/12/30 00:23:59;;;;;;;10.77;7.47;;;;;;;;;;5116468;28;20202;-80
2023/12/30 00:26:27;;;;;;;11.87;6.03;;;;;;;;;;5116217;28;20258;-80
2023/12/30 00:28:54;;;;;;;8.63;6.50;;;;;;;;;;5115961;28;20670;-80
2023/12/30 00:31:23;;;;;;;7.80;6.77;;;;;;;;;;5116068;28;20313;-79
2023/12/30 00:33:50;;;;;;;10.27;6.50;;;;;;;;;;5116098;28;20713;-79
2023/12/30 00:36:17;;;;;;;7.67;6.23;;;;;;;;;;5116416;28;20268;-80
2023/12/30 00:38:49;;;;;;;7.03;6.33;;;;;;;;;;5115892;28;20287;-80
2023/12/30 00:41:16;;;;;;;8.40;5.77;;;;;;;;;;5115979;28;20290;-80
2023/12/30 00:43:46;;;;;;;37.37;24.53;;;;;;;;;;5115872;28;20207;-79
2023/12/30 00:46:13;;;;;;;18.47;13.10;;;;;;;;;;5115750;28;20665;-79
2023/12/30 00:48:40;;;;;;;10.83;8.53;;;;;;;;;;5115810;28;20670;-79
2023/12/30 00:51:07;;;;;;;60.03;39.17;;;;;;;;;;5116182;28;20226;-79
2023/12/30 00:53:33;;;;;;;25.40;18.97;;;;;;;;;;5115895;28;20195;-79
2023/12/30 00:56:00;;;;;;;27.83;18.30;;;;;;;;;;5115746;28;20195;-79
2023/12/30 00:58:27;;;;;;;9.40;7.23;;;;;;;;;;5115643;28;20206;-79
2023/12/30 01:00:55;;;;;;;14.90;10.47;;;;;;;;;;5114588;28;20286;-79
2023/12/30 01:03:22;;;;;;;21.70;16.03;;;;;;;;;;5115341;28;20209;-80
2023/12/30 01:05:49;;;;;;;12.00;9.43;;;;;;;;;;5115816;28;20723;-80
2023/12/30 01:08:15;;;;;;;11.47;6.90;;;;;;;;;;5116127;28;20222;-80
2023/12/30 01:10:45;;;;;;;6.10;5.50;;;;;;;;;;5115171;28;20203;-80
2023/12/30 01:13:12;;;;;;;7.57;5.47;;;;;;;;;;5115305;28;20252;-80
2023/12/30 01:15:38;;;;;;;8.43;5.43;;;;;;;;;;5115775;28;20219;-80
2023/12/30 01:18:07;;;;;;;7.77;5.60;;;;;;;;;;5114102;28;20198;-79
2023/12/30 01:20:33;;;;;;;10.60;5.33;;;;;;;;;;5115556;28;20191;-80
2023/12/30 01:23:00;;;;;;;5.87;4.83;;;;;;;;;;5115120;28;20199;-80
2023/12/30 01:25:27;;;;;;;8.97;4.83;;;;;;;;;;5115936;28;20245;-80
2023/12/30 01:27:54;;;;;;;6.07;5.47;;;;;;;;;;5115282;28;20273;-79
2023/12/30 01:30:21;;;;;;;5.33;4.83;;;;;;;;;;5114857;28;20214;-80
2023/12/30 01:32:48;;;;;;;9.37;5.00;;;;;;;;;;5115288;28;20224;-80
2023/12/30 01:35:16;;;;;;;5.97;5.07;;;;;;;;;;5115385;28;20219;-80
2023/12/30 01:37:46;;;;;;;8.07;5.33;;;;;;;;;;5113796;28;20196;-79
2023/12/30 01:40:14;;;;;;;7.03;6.37;;;;;;;;;;5114747;28;20203;-80
2023/12/30 01:42:41;;;;;;;11.57;5.73;;;;;;;;;;5114690;28;20237;-80
2023/12/30 01:45:09;;;;;;;7.20;5.63;;;;;;;;;;5115145;28;20248;-80
2023/12/30 01:47:36;;;;;;;10.00;4.83;;;;;;;;;;5114906;28;20195;-79
2023/12/30 01:50:03;;;;;;;5.80;4.53;;;;;;;;;;5115342;28;20195;-80
2023/12/30 01:52:32;;;;;;;6.67;4.40;;;;;;;;;;5114546;28;20203;-79
2023/12/30 01:54:59;;;;;;;6.73;5.80;;;;;;;;;;5114704;28;20219;-79
2023/12/30 01:57:26;;;;;;;5.87;5.10;;;;;;;;;;5114562;28;20195;-79
2023/12/30 01:59:53;;;;;;;8.47;5.57;;;;;;;;;;5114529;28;20199;-79
2023/12/30 02:02:21;;;;;;;11.80;7.70;;;;;;;;;;5114486;28;20203;-79
2023/12/30 02:04:48;;;;;;;10.03;6.80;;;;;;;;;;5114739;28;20195;-79
2023/12/30 02:07:14;;;;;;;7.70;5.27;;;;;;;;;;5114380;28;20204;-79
2023/12/30 02:09:43;;;;;;;6.23;5.63;;;;;;;;;;5114995;28;20199;-78
2023/12/30 02:12:09;;;;;;;6.60;4.60;;;;;;;;;;5114291;28;20203;-79
2023/12/30 02:14:36;;;;;;;6.97;5.00;;;;;;;;;;5114095;28;20218;-79
2023/12/30 02:17:03;;;;;;;5.27;4.47;;;;;;;;;;5114079;28;20246;-80
2023/12/30 02:19:30;;;;;;;9.13;7.13;;;;;;;;;;5114681;28;20256;-79
2023/12/30 02:21:57;;;;;;;15.10;9.80;;;;;;;;;;5114495;28;20199;-79
2023/12/30 02:24:25;;;;;;;8.67;6.73;;;;;;;;;;5114187;28;20202;-79
2023/12/30 02:26:52;;;;;;;5.77;5.17;;;;;;;;;;5114112;28;20550;-80
2023/12/30 02:29:18;;;;;;;6.23;5.30;;;;;;;;;;5114272;28;20546;-80
2023/12/30 02:31:48;;;;;;;7.10;4.10;;;;;;;;;;5113700;28;20223;-80
2023/12/30 02:34:15;;;;;;;4.53;4.13;;;;;;;;;;5114262;28;20253;-80
2023/12/30 02:36:44;;;;;;;8.83;4.90;;;;;;;;;;5113910;28;20315;-80
2023/12/30 02:39:11;;;;;;;6.23;5.30;;;;;;;;;;5113810;28;20236;-80
2023/12/30 02:41:39;;;;;;;6.07;5.30;;;;;;;;;;5113858;28;20195;-80
2023/12/30 02:44:06;;;;;;;8.00;5.17;;;;;;;;;;5108233;28;20701;-80
2023/12/30 02:46:33;;;;;;;5.03;4.53;;;;;;;;;;5093294;28;20200;-80
2023/12/30 02:49:03;;;;;;;7.30;5.30;;;;;;;;;;5093994;28;20207;-80
2023/12/30 02:51:30;;;;;;;7.10;4.97;;;;;;;;;;5093543;28;20253;-80
2023/12/30 02:53:57;;;;;;;5.93;5.33;;;;;;;;;;5092931;28;20242;-80
2023/12/30 02:56:24;;;;;;;6.77;5.67;;;;;;;;;;5092947;28;20698;-80
2023/12/30 02:58:55;;;;;;;6.47;5.00;;;;;;;;;;5093782;28;20188;-80
2023/12/30 03:01:23;;;;;;;6.40;4.83;;;;;;;;;;5093275;28;20197;-80
2023/12/30 03:03:52;;;;;;;5.80;4.80;;;;;;;;;;5093047;28;20192;-81
2023/12/30 03:06:18;;;;;;;5.53;4.73;;;;;;;;;;5093285;28;20204;-80
2023/12/30 03:08:46;;;;;;;7.77;5.00;;;;;;;;;;5093324;28;20188;-81
2023/12/30 03:11:13;;;;;;;8.67;5.60;;;;;;;;;;5092768;28;20257;-81
2023/12/30 03:13:39;;;;;;;6.10;5.50;;;;;;;;;;5092695;28;20211;-80
2023/12/30 03:16:08;;;;;;;8.60;5.17;;;;;;;;;;5093560;28;20231;-81
2023/12/30 03:18:35;;;;;;;8.37;5.77;;;;;;;;;;5092832;28;20249;-81
2023/12/30 03:21:02;;;;;;;5.87;4.87;;;;;;;;;;5092732;28;20197;-81
2023/12/30 03:23:29;;;;;;;6.13;4.90;;;;;;;;;;5093409;28;20611;-81
2023/12/30 03:25:55;;;;;;;9.33;7.03;;;;;;;;;;5092472;28;20196;-80
2023/12/30 03:28:23;;;;;;;40.43;25.20;;;;;;;;;;5092971;28;20247;-81
2023/12/30 03:30:50;;;;;;;37.50;23.43;;;;;;;;;;5092619;28;20297;-81
2023/12/30 03:33:20;;;;;;;19.20;13.77;;;;;;;;;;5092116;28;20659;-81
2023/12/30 03:35:47;;;;;;;48.83;30.03;;;;;;;;;;5092192;28;20215;-81
2023/12/30 03:38:14;;;;;;;25.93;17.13;;;;;;;;;;5092255;28;20659;-81
2023/12/30 03:40:41;;;;;;;18.43;11.47;;;;;;;;;;5092025;28;20203;-81
2023/12/30 03:43:09;;;;;;;11.27;9.77;;;;;;;;;;5092253;28;20200;-81
2023/12/30 03:45:35;;;;;;;8.37;6.70;;;;;;;;;;5090983;28;20249;-82
2023/12/30 03:48:02;;;;;;;9.30;7.70;;;;;;;;;;5092570;28;20196;-82
2023/12/30 03:50:30;;;;;;;9.20;6.90;;;;;;;;;;5092163;28;20641;-82
2023/12/30 03:52:57;;;;;;;6.90;5.87;;;;;;;;;;5091968;28;20199;-82
2023/12/30 03:55:24;;;;;;;9.00;6.53;;;;;;;;;;5091919;28;20223;-82
2023/12/30 03:57:53;;;;;;;6.53;5.70;;;;;;;;;;5092122;28;20200;-82
2023/12/30 04:00:20;;;;;;;13.80;11.10;;;;;;;;;;5091891;28;20211;-81
2023/12/30 04:02:47;;;;;;;27.83;19.70;;;;;;;;;;5092384;28;20200;-81
2023/12/30 04:05:14;;;;;;;11.53;9.03;;;;;;;;;;5092158;28;20362;-83
2023/12/30 04:07:44;;;;;;;9.93;8.20;;;;;;;;;;5092195;28;20257;-82
2023/12/30 04:10:14;;;;;;;6.63;5.80;;;;;;;;;;5092708;28;20224;-82
2023/12/30 04:12:41;;;;;;;7.27;5.83;;;;;;;;;;5091661;28;20199;-82
2023/12/30 04:15:09;;;;;;;5.53;4.83;;;;;;;;;;5091922;28;20251;-82
2023/12/30 04:17:36;;;;;;;5.43;4.93;;;;;;;;;;5092378;28;20196;-82
2023/12/30 04:20:05;;;;;;;5.93;4.77;;;;;;;;;;5091729;28;20207;-82
2023/12/30 04:22:32;;;;;;;6.30;5.47;;;;;;;;;;5092262;28;20265;-83
2023/12/30 04:25:00;;;;;;;6.00;4.70;;;;;;;;;;5091746;28;20211;-82
2023/12/30 04:27:27;;;;;;;5.13;4.60;;;;;;;;;;5092011;28;20236;-82
2023/12/30 04:29:54;;;;;;;6.33;4.97;;;;;;;;;;5092144;28;20200;-83
2023/12/30 04:32:21;;;;;;;7.37;6.27;;;;;;;;;;5091772;28;20274;-82
2023/12/30 04:34:49;;;;;;;8.00;6.00;;;;;;;;;;5091761;28;20196;-82
2023/12/30 04:37:16;;;;;;;9.90;8.27;;;;;;;;;;5092573;28;20204;-82
2023/12/30 04:39:43;;;;;;;10.13;8.03;;;;;;;;;;5091675;28;20577;-81
2023/12/30 04:42:16;;;;;;;6.07;5.47;;;;;;;;;;5091594;28;20200;-81
2023/12/30 04:44:43;;;;;;;7.50;5.93;;;;;;;;;;5091684;28;20255;-80
2023/12/30 04:47:10;;;;;;;11.43;6.13;;;;;;;;;;5091649;28;20196;-81
2023/12/30 04:49:36;;;;;;;12.90;6.47;;;;;;;;;;5091484;28;20196;-81
2023/12/30 04:52:06;;;;;;;7.73;6.90;;;;;;;;;;5091361;28;20200;-81
2023/12/30 04:54:33;;;;;;;7.33;5.13;;;;;;;;;;5091500;28;20196;-80
2023/12/30 04:57:00;;;;;;;5.27;4.70;;;;;;;;;;5091311;28;20345;-80
2023/12/30 04:59:28;;;;;;;5.37;4.47;;;;;;;;;;5091331;28;20207;-79
2023/12/30 05:01:55;;;;;;;7.47;6.10;;;;;;;;;;5091698;28;20197;-79
2023/12/30 05:04:22;;;;;;;13.40;9.13;;;;;;;;;;5092149;28;20627;-79
2023/12/30 05:06:48;;;;;;;13.67;9.57;;;;;;;;;;5093725;28;20207;-79
2023/12/30 05:09:15;;;;;;;13.47;9.47;;;;;;;;;;5095102;28;20208;-79
2023/12/30 05:11:45;;;;;;;7.03;6.30;;;;;;;;;;5095438;28;20207;-79
2023/12/30 05:14:12;;;;;;;11.33;7.37;;;;;;;;;;5095122;28;20192;-79
2023/12/30 05:16:45;;;;;;;12.63;10.60;;;;;;;;;;5094826;28;20255;-81
2023/12/30 05:19:12;;;;;;;13.83;12.40;;;;;;;;;;5093722;28;20283;-81
2023/12/30 05:21:39;;;;;;;7.40;6.70;;;;;;;;;;5095035;28;20651;-79
2023/12/30 05:24:06;;;;;;;11.17;7.30;;;;;;;;;;5095254;28;20189;-80
2023/12/30 05:26:33;;;;;;;10.70;7.07;;;;;;;;;;5095117;28;20579;-80
2023/12/30 05:29:00;;;;;;;6.67;5.77;;;;;;;;;;5094791;28;20666;-80
2023/12/30 05:31:27;;;;;;;5.27;4.77;;;;;;;;;;5103133;28;20238;-80
2023/12/30 05:33:56;;;;;;;7.50;6.70;;;;;;;;;;5115358;28;20596;-79
2023/12/30 05:36:22;;;;;;;8.50;6.80;;;;;;;;;;5115087;28;20226;-80
2023/12/30 05:38:50;;;;;;;5.67;5.07;;;;;;;;;;5114751;28;20669;-80
2023/12/30 05:41:16;;;;;;;5.33;4.80;;;;;;;;;;5115331;28;20207;-79
2023/12/30 05:43:45;;;;;;;7.70;6.00;;;;;;;;;;5113383;28;20206;-79
2023/12/30 05:46:16;;;;;;;7.60;5.03;;;;;;;;;;5115553;28;20234;-79
2023/12/30 05:48:46;;;;;;;5.93;5.10;;;;;;;;;;5114807;28;20252;-80
2023/12/30 05:51:14;;;;;;;11.90;5.33;;;;;;;;;;5114916;28;20207;-80
2023/12/30 05:53:41;;;;;;;17.97;11.77;;;;;;;;;;5115294;28;20223;-80
2023/12/30 05:56:08;;;;;;;8.53;6.43;;;;;;;;;;5114748;28;20300;-80
2023/12/30 05:58:37;;;;;;;6.93;6.23;;;;;;;;;;5114503;28;20678;-80
2023/12/30 06:01:05;;;;;;;7.73;5.80;;;;;;;;;;5114624;28;20702;-81
2023/12/30 06:03:31;;;;;;;6.30;5.20;;;;;;;;;;5114974;28;20202;-80
2023/12/30 06:05:58;;;;;;;7.63;5.37;;;;;;;;;;5114603;28;20571;-80
2023/12/30 06:08:26;;;;;;;7.57;5.07;;;;;;;;;;5114369;28;20203;-80
2023/12/30 06:10:53;;;;;;;8.17;5.33;;;;;;;;;;5114460;28;20198;-80
2023/12/30 06:13:20;;;;;;;5.10;4.40;;;;;;;;;;5114197;28;20202;-83
2023/12/30 06:15:51;;;;;;;7.03;4.67;;;;;;;;;;5114604;28;20310;-78
2023/12/30 06:18:18;;;;;;;10.90;5.07;;;;;;;;;;5113612;28;20200;-85
2023/12/30 06:20:46;;;;;;;13.43;10.17;;;;;;;;;;5115028;28;20199;-81
2023/12/30 06:23:13;;;;;;;27.73;20.50;;;;;;;;;;5114097;28;20612;-81
2023/12/30 06:25:43;;;;;;;29.47;23.03;;;;;;;;;;5114028;28;20204;-82
2023/12/30 06:28:09;;;;;;;19.50;16.77;;;;;;;;;;5114514;28;20632;-82
2023/12/30 06:30:36;;;;;;;8.77;7.87;;;;;;;;;;5114172;28;20222;-82
2023/12/30 06:33:06;;;;;;;8.40;5.90;;;;;;;;;;5114034;28;20196;-82
2023/12/30 06:35:35;;;;;;;7.73;6.80;;;;;;;;;;5113372;28;20219;-85
2023/12/30 06:38:02;;;;;;;9.13;6.67;;;;;;;;;;5113233;28;20236;-82
2023/12/30 06:40:29;;;;;;;7.77;6.13;;;;;;;;;;5114190;28;20196;-84
2023/12/30 06:42:57;;;;;;;8.03;5.90;;;;;;;;;;5113585;28;20196;-84
2023/12/30 06:45:24;;;;;;;4.90;4.43;;;;;;;;;;5114119;28;20210;-83
2023/12/30 06:47:51;;;;;;;11.17;8.00;;;;;;;;;;5112159;28;20195;-80
2023/12/30 06:50:20;;;;;;;16.33;10.60;;;;;;;;;;5113469;28;20199;-81
2023/12/30 06:52:47;;;;;;;10.80;8.17;;;;;;;;;;5114157;28;20573;-80
2023/12/30 06:55:14;;;;;;;18.60;14.17;;;;;;;;;;5114076;28;20206;-79
2023/12/30 06:57:42;;;;;;;43.50;27.13;;;;;;;;;;5113748;28;20211;-81
2023/12/30 07:00:11;;;;;;;45.63;30.57;;;;;;;;;;5111965;28;20716;-79
2023/12/30 07:02:40;;;;;;;28.67;20.70;;;;;;;;;;5113453;28;20195;-80
2023/12/30 07:05:08;;;;;;;68.37;58.87;;;;;;;;;;5113342;28;20581;-82
2023/12/30 07:07:35;;;;;;;27.63;23.13;;;;;;;;;;5114354;28;20222;-79
2023/12/30 07:10:03;;;;;;;24.20;20.07;;;;;;;;;;5113439;28;20207;-80
2023/12/30 07:12:29;;;;;;;12.80;10.27;;;;;;;;;;5113646;28;20207;-79
2023/12/30 07:14:57;;;;;;;15.67;12.87;;;;;;;;;;5114098;28;20209;-79
2023/12/30 07:17:26;;;;;;;21.70;13.40;;;;;;;;;;5112809;28;20321;-80
2023/12/30 07:19:53;;;;;;;126.47;61.70;;;;;;;;;;5095072;28;20216;-79
2023/12/30 07:22:20;;;;;;;35.97;24.30;;;;;;;;;;5076835;28;20203;-80
2023/12/30 07:24:47;;;;;;;46.57;24.83;;;;;;;;;;5102929;28;20207;-80
2023/12/30 07:27:14;;;;;;;33.03;19.50;;;;;;;;;;5111639;28;20223;-80
2023/12/30 07:29:41;;;;;;;15.33;12.00;;;;;;;;;;5111799;28;20195;-79
2023/12/30 07:32:07;;;;;;;17.37;11.90;;;;;;;;;;5112301;28;20219;-79
2023/12/30 07:34:36;;;;;;;18.03;12.97;;;;;;;;;;5111609;28;20252;-79
2023/12/30 07:37:04;;;;;;;15.90;13.00;;;;;;;;;;5112311;28;20280;-79
2023/12/30 07:39:33;;;;;;;17.67;13.30;;;;;;;;;;5112081;28;20210;-79
2023/12/30 07:42:00;;;;;;;23.70;18.47;;;;;;;;;;5112612;28;20290;-79
2023/12/30 07:44:28;;;;;;;28.07;21.07;;;;;;;;;;5111556;28;20747;-79
2023/12/30 07:46:55;;;;;;;18.47;14.63;;;;;;;;;;5112832;28;20278;-79
2023/12/30 07:49:22;;;;;;;14.57;11.50;;;;;;;;;;5112675;28;20195;-79
2023/12/30 07:51:50;;;;;;;16.63;11.43;;;;;;;;;;5112643;28;20203;-79
2023/12/30 07:54:17;;;;;;;12.10;10.67;;;;;;;;;;5111414;28;20191;-79
2023/12/30 07:56:44;;;;;;;11.30;10.20;;;;;;;;;;5112222;28;20215;-78
2023/12/30 07:59:12;;;;;;;14.40;11.33;;;;;;;;;;5112237;28;20199;-80
2023/12/30 08:01:44;;;;;;;20.00;14.93;;;;;;;;;;5111642;28;20198;-79
2023/12/30 08:04:10;;;;;;;23.43;17.93;;;;;;;;;;5113055;28;20191;-79
2023/12/30 08:06:40;;;;;;;20.67;16.67;;;;;;;;;;5112416;28;20204;-79
2023/12/30 08:09:08;;;;;;;18.40;14.87;;;;;;;;;;5110990;28;20199;-79
2023/12/30 08:11:35;;;;;;;13.03;11.53;;;;;;;;;;5112242;28;20666;-79
2023/12/30 08:14:02;;;;;;;11.43;10.23;;;;;;;;;;5112135;28;20195;-79
2023/12/30 08:16:28;;;;;;;9.93;8.00;;;;;;;;;;5111354;28;20222;-79
2023/12/30 08:18:55;;;;;;;9.43;8.50;;;;;;;;;;5112313;28;20213;-79
2023/12/30 08:21:22;;;;;;;12.63;10.20;;;;;;;;;;5096204;28;20200;-79
2023/12/30 08:23:49;;;;;;;8.17;7.37;;;;;;;;;;5098127;28;20188;-79
2023/12/30 08:26:17;;;;;;;7.03;6.30;;;;;;;;;;5111888;28;20203;-79
2023/12/30 08:28:47;;;;;;;9.47;5.90;;;;;;;;;;5110769;28;20203;-79
2023/12/30 08:31:13;;;;;;;6.43;5.57;;;;;;;;;;5111328;28;20215;-79
2023/12/30 08:33:40;;;;;;;7.03;5.93;;;;;;;;;;5110953;28;20209;-79
2023/12/30 08:36:09;;;;;;;17.40;12.87;;;;;;;;;;5111086;28;20204;-79
2023/12/30 08:38:36;;;;;;;94.77;47.77;;;;;;;;;;5093392;28;20631;-79
2023/12/30 08:41:03;;;;;;;44.37;23.70;;;;;;;;;;5112630;28;20252;-79
2023/12/30 08:43:31;;;;;;;81.27;39.20;;;;;;;;;;5112914;28;20681;-79
2023/12/30 08:45:59;;;;;;;39.77;23.07;;;;;;;;;;5096201;28;20197;-79
2023/12/30 08:48:26;;;;;;;22.77;16.10;;;;;;;;;;5110437;28;20195;-79
2023/12/30 08:50:52;;;;;;;14.37;10.13;;;;;;;;;;5115238;28;20204;-79
2023/12/30 08:53:24;;;;;;;11.00;7.77;;;;;;;;;;5115069;28;20228;-79
2023/12/30 08:55:51;;;;;;;9.83;6.90;;;;;;;;;;5115740;28;20191;-79
2023/12/30 08:58:18;;;;;;;7.13;6.43;;;;;;;;;;5116199;28;20287;-78
2023/12/30 09:00:47;;;;;;;6.80;5.20;;;;;;;;;;5114516;28;20196;-79
2023/12/30 09:03:13;;;;;;;7.67;5.13;;;;;;;;;;5114821;28;20188;-79
2023/12/30 09:05:41;;;;;;;5.73;5.17;;;;;;;;;;5114135;28;20195;-78
2023/12/30 09:08:08;;;;;;;5.27;4.77;;;;;;;;;;5115246;28;20206;-78
2023/12/30 09:10:34;;;;;;;5.57;4.63;;;;;;;;;;5115374;28;20203;-78
2023/12/30 09:13:01;;;;;;;4.90;4.37;;;;;;;;;;5099209;28;20197;-78
2023/12/30 09:15:28;;;;;;;6.97;3.90;;;;;;;;;;5111898;28;20207;-79
2023/12/30 09:17:57;;;;;;;5.37;4.87;;;;;;;;;;5114829;28;20220;-78
2023/12/30 09:20:24;;;;;;;4.57;4.13;;;;;;;;;;5114893;28;20196;-78
2023/12/30 09:22:52;;;;;;;4.37;3.90;;;;;;;;;;5112077;28;20204;-78
2023/12/30 09:25:18;;;;;;;6.87;4.80;;;;;;;;;;5114443;28;20204;-79
2023/12/30 09:27:51;;;;;;;9.33;5.20;;;;;;;;;;5115219;28;20288;-79
2023/12/30 09:30:18;;;;;;;6.53;5.43;;;;;;;;;;5113710;28;20222;-79
2023/12/30 09:32:44;;;;;;;9.20;7.73;;;;;;;;;;5115319;28;20230;-79
2023/12/30 09:35:13;;;;;;;20.07;14.13;;;;;;;;;;5113181;28;20200;-79
2023/12/30 09:37:39;;;;;;;13.93;12.40;;;;;;;;;;5114329;28;20211;-78
2023/12/30 09:40:08;;;;;;;5.40;4.90;;;;;;;;;;5114125;28;20695;-79
2023/12/30 09:42:37;;;;;;;5.17;4.60;;;;;;;;;;5113915;28;20206;-79
2023/12/30 09:45:06;;;;;;;8.70;5.17;;;;;;;;;;5114620;28;20665;-78
2023/12/30 09:47:33;;;;;;;10.50;5.30;;;;;;;;;;5113733;28;20203;-79
2023/12/30 09:50:00;;;;;;;4.77;4.10;;;;;;;;;;5114910;28;20206;-78
2023/12/30 09:52:29;;;;;;;10.30;7.77;;;;;;;;;;5113656;28;20638;-78
2023/12/30 09:54:55;;;;;;;18.40;14.53;;;;;;;;;;5113715;28;20196;-78
2023/12/30 09:57:22;;;;;;;7.13;6.20;;;;;;;;;;5114157;28;20226;-78
2023/12/30 09:59:49;;;;;;;10.37;9.07;;;;;;;;;;5114688;28;20195;-79
2023/12/30 10:02:16;;;;;;;11.23;8.77;;;;;;;;;;5112320;28;20702;-78
2023/12/30 10:04:49;;;;;;;10.77;9.57;;;;;;;;;;5113677;28;20199;-78
2023/12/30 10:07:16;;;;;;;12.03;9.20;;;;;;;;;;5113515;28;20200;-79
2023/12/30 10:09:45;;;;;;;12.73;10.60;;;;;;;;;;5113504;28;20248;-78
2023/12/30 10:12:13;;;;;;;13.17;10.23;;;;;;;;;;5114475;28;20199;-79
2023/12/30 10:14:40;;;;;;;15.33;11.23;;;;;;;;;;5112735;28;20249;-78
2023/12/30 10:17:10;;;;;;;11.53;10.13;;;;;;;;;;5113961;28;20222;-78
2023/12/30 10:19:37;;;;;;;14.20;10.43;;;;;;;;;;5113908;28;20199;-79
2023/12/30 10:22:06;;;;;;;8.83;7.67;;;;;;;;;;5113053;28;20218;-79
2023/12/30 10:24:33;;;;;;;15.70;12.33;;;;;;;;;;5113234;28;20563;-78
2023/12/30 10:27:04;;;;;;;10.20;9.13;;;;;;;;;;5113673;28;20196;-78
2023/12/30 10:29:31;;;;;;;11.93;9.60;;;;;;;;;;5112837;28;20195;-78
2023/12/30 10:32:03;;;;;;;10.30;9.33;;;;;;;;;;5113136;28;20262;-85
2023/12/30 10:34:30;;;;;;;11.33;8.80;;;;;;;;;;5080764;28;20202;-78
2023/12/30 10:36:57;;;;;;;16.63;11.97;;;;;;;;;;5096364;28;20230;-78
2023/12/30 10:39:26;;;;;;;9.53;7.53;;;;;;;;;;5104366;28;20879;-78
2023/12/30 10:41:53;;;;;;;11.17;7.33;;;;;;;;;;5108769;28;20195;-79
2023/12/30 10:44:21;;;;;;;11.00;8.27;;;;;;;;;;5099191;28;20193;-79
2023/12/30 10:46:49;;;;;;;13.73;11.30;;;;;;;;;;5098569;28;20623;-79
2023/12/30 10:49:17;;;;;;;8.63;7.60;;;;;;;;;;5112396;28;20229;-80
2023/12/30 10:51:44;;;;;;;16.57;14.13;;;;;;;;;;5112267;28;20302;-79
2023/12/30 10:54:14;;;;;;;12.67;9.97;;;;;;;;;;5112527;28;20200;-79
2023/12/30 10:56:45;;;;;;;10.20;9.20;;;;;;;;;;5099787;28;20227;-79
2023/12/30 10:59:13;;;;;;;10.77;9.67;;;;;;;;;;5105968;28;20203;-78
2023/12/30 11:01:41;;;;;;;13.63;9.23;;;;;;;;;;5112790;28;20191;-78
2023/12/30 11:04:11;;;;;;;18.47;11.57;;;;;;;;;;5102575;28;20208;-80
2023/12/30 11:06:45;;;;;;;16.03;11.10;;;;;;;;;;5107742;28;20211;-81
2023/12/30 11:09:13;;;;;;;11.63;9.17;;;;;;;;;;5109235;28;20200;-81
2023/12/30 11:11:41;;;;;;;9.60;8.17;;;;;;;;;;5108557;28;20196;-82
2023/12/30 11:14:12;;;;;;;11.13;8.43;;;;;;;;;;5110122;28;20390;-81
2023/12/30 11:16:41;;;;;;;16.43;8.47;;;;;;;;;;5112234;28;20301;-81
2023/12/30 11:19:08;;;;;;;19.07;11.40;;;;;;;;;;5112194;28;20230;-80
2023/12/30 11:21:37;;;;;;;11.13;9.50;;;;;;;;;;5111831;28;20200;-80
2023/12/30 11:24:06;;;;;;;20.13;15.23;;;;;;;;;;5111304;28;20199;-80
2023/12/30 11:26:35;;;;;;;17.33;11.73;;;;;;;;;;5107047;28;20194;-80
2023/12/30 11:29:03;;;;;;;15.03;12.27;;;;;;;;;;5102608;28;20200;-80
2023/12/30 11:31:33;;;;;;;16.17;12.97;;;;;;;;;;5111903;28;20270;-80
2023/12/30 11:34:01;;;;;;;17.60;13.73;;;;;;;;;;5110095;28;20200;-80
2023/12/30 11:36:29;;;;;;;16.10;12.70;;;;;;;;;;5098642;28;20667;-79
2023/12/30 11:38:57;;;;;;;12.57;10.70;;;;;;;;;;5111579;28;20592;-81
2023/12/30 11:41:25;;;;;;;14.13;10.93;;;;;;;;;;5111663;28;20209;-81
2023/12/30 11:43:53;;;;;;;13.80;10.77;;;;;;;;;;5111346;28;20649;-80
2023/12/30 11:46:20;;;;;;;18.33;16.27;;;;;;;;;;5111495;28;20207;-81
2023/12/30 11:48:47;;;;;;;9.77;8.53;;;;;;;;;;5110358;28;20618;-81
2023/12/30 11:51:21;;;;;;;11.47;8.87;;;;;;;;;;5111911;28;20195;-81
2023/12/30 11:53:48;;;;;;;12.20;10.87;;;;;;;;;;5111409;28;20198;-81
2023/12/30 11:56:15;;;;;;;11.50;9.20;;;;;;;;;;5111584;28;20198;-80
2023/12/30 11:58:44;;;;;;;11.50;10.30;;;;;;;;;;5100200;28;20234;-81
2023/12/30 12:01:12;;;;;;;13.80;8.87;;;;;;;;;;5105192;28;20203;-80
2023/12/30 12:03:39;;;;;;;12.60;10.07;;;;;;;;;;5111253;28;20255;-80
2023/12/30 12:06:06;;;;;;;9.87;7.80;;;;;;;;;;5111549;28;20202;-80
2023/12/30 12:08:35;;;;;;;13.83;10.33;;;;;;;;;;5103131;28;20194;-80
2023/12/30 12:11:02;;;;;;;10.77;9.47;;;;;;;;;;5100804;28;20204;-81
2023/12/30 12:13:29;;;;;;;9.00;7.30;;;;;;;;;;5108121;28;20199;-80
2023/12/30 12:15:57;;;;;;;9.83;8.30;;;;;;;;;;5111967;28;20204;-80
2023/12/30 12:18:24;;;;;;;8.97;7.97;;;;;;;;;;5114689;28;20218;-81
2023/12/30 12:20:51;;;;;;;8.57;6.93;;;;;;;;;;5115152;28;20664;-80
2023/12/30 12:23:19;;;;;;;7.70;5.93;;;;;;;;;;5115331;28;20216;-80
2023/12/30 12:25:47;;;;;;;9.77;7.70;;;;;;;;;;5115162;28;20729;-80
2023/12/30 12:28:15;;;;;;;9.87;7.93;;;;;;;;;;5114924;28;20194;-80
2023/12/30 12:30:45;;;;;;;13.13;8.70;;;;;;;;;;5115380;28;20205;-81
2023/12/30 12:33:13;;;;;;;12.13;9.23;;;;;;;;;;5113268;28;20245;-80
2023/12/30 12:35:39;;;;;;;11.23;8.40;;;;;;;;;;5115337;28;20207;-80
2023/12/30 12:38:07;;;;;;;38.73;28.03;;;;;;;;;;5115244;28;20233;-80
2023/12/30 12:40:34;;;;;;;13.30;7.93;;;;;;;;;;5115024;28;20198;-81
2023/12/30 12:43:04;;;;;;;15.13;11.50;;;;;;;;;;5115181;28;20204;-80
2023/12/30 12:45:31;;;;;;;8.70;7.50;;;;;;;;;;5115376;28;20194;-83
2023/12/30 12:47:58;;;;;;;52.43;27.30;;;;;;;;;;5089554;28;20659;-81
2023/12/30 12:50:25;;;;;;;110.10;49.77;;;;;;;;;;5114346;28;20245;-83
2023/12/30 12:52:52;;;;;;;96.87;53.47;;;;;;;;;;5112185;28;20191;-82
2023/12/30 12:55:18;;;;;;;77.03;43.63;;;;;;;;;;5115839;28;20191;-83
2023/12/30 12:57:45;;;;;;;48.47;27.13;;;;;;;;;;5115681;28;20228;-83
2023/12/30 13:00:15;;;;;;;38.37;24.27;;;;;;;;;;5111741;28;20203;-83
2023/12/30 13:02:43;;;;;;;40.10;26.60;;;;;;;;;;5114779;28;20632;-84
2023/12/30 13:05:10;;;;;;;42.33;28.20;;;;;;;;;;5114086;28;20199;-84
2023/12/30 13:07:42;;;;;;;29.03;20.53;;;;;;;;;;5114606;28;20743;-83
2023/12/30 13:10:34;;;;;;;31.53;22.57;;;;;;;;;;5114815;28;20202;-83
2023/12/30 13:12:58;;;;;;;23.63;18.77;;;;;;;;;;5114059;28;20585;-83
2023/12/30 13:15:26;;;;;;;33.63;21.83;;;;;;;;;;5113739;28;20282;-84
2023/12/30 13:17:54;;;;;;;72.50;43.60;;;;;;;;;;5113740;28;20371;-84
2023/12/30 13:20:21;;;;;;;49.80;30.60;;;;;;;;;;5114101;28;20245;-84
2023/12/30 13:22:55;;;;;;;84.77;48.70;;;;;;;;;;5113653;28;20573;-84
2023/12/30 13:25:22;;;;;;;75.17;49.93;;;;;;;;;;5114239;28;20194;-84
2023/12/30 13:27:49;;;;;;;45.50;35.13;;;;;;;;;;5113299;28;20208;-83
2023/12/30 13:30:18;;;;;;;35.53;26.20;;;;;;;;;;5114425;28;20202;-84
2023/12/30 13:32:48;;;;;;;25.30;20.50;;;;;;;;;;5113829;28;20222;-84
2023/12/30 13:35:14;;;;;;;27.57;23.43;;;;;;;;;;5114268;28;20282;-85
2023/12/30 13:37:42;;;;;;;29.00;23.17;;;;;;;;;;5113818;28;20195;-85
2023/12/30 13:40:13;;;;;;;27.60;22.97;;;;;;;;;;5114138;28;20195;-84
2023/12/30 13:42:40;;;;;;;22.30;17.17;;;;;;;;;;5113590;28;20229;-84
2023/12/30 13:45:10;;;;;;;40.50;29.17;;;;;;;;;;5114334;28;20203;-85
2023/12/30 13:47:52;;;;;;;44.33;31.43;;;;;;;;;;5113992;28;20584;-85
2023/12/30 13:50:29;;;;;;;72.00;45.43;;;;;;;;;;5113577;28;20282;-85
2023/12/30 13:53:01;;;;;;;62.57;43.13;;;;;;;;;;5113860;28;20196;-85
2023/12/30 13:55:28;;;;;;;38.60;26.73;;;;;;;;;;5113467;28;20203;-85
2023/12/30 13:57:56;;;;;;;28.03;22.20;;;;;;;;;;5113723;28;20211;-85
2023/12/30 14:00:23;;;;;;;32.27;24.30;;;;;;;;;;5113258;28;20192;-85
2023/12/30 14:02:50;;;;;;;29.00;18.13;;;;;;;;;;5113853;28;20630;-85
2023/12/30 14:05:22;;;;;;;20.80;15.07;;;;;;;;;;5113364;28;20210;-85
2023/12/30 14:07:51;;;;;;;21.00;15.57;;;;;;;;;;5094367;28;20207;-85
2023/12/30 14:10:18;;;;;;;23.97;15.53;;;;;;;;;;5093442;28;20201;-85
2023/12/30 14:12:46;;;;;;;20.47;18.17;;;;;;;;;;5093845;28;20291;-85
2023/12/30 14:15:15;;;;;;;23.87;21.17;;;;;;;;;;5094534;28;20200;-85
2023/12/30 14:17:42;;;;;;;26.60;21.50;;;;;;;;;;5093041;28;20219;-86
2023/12/30 14:20:10;;;;;;;28.83;21.07;;;;;;;;;;5101542;28;20268;-86
2023/12/30 14:22:37;;;;;;;21.60;17.23;;;;;;;;;;5109241;28;20243;-85
2023/12/30 14:25:11;;;;;;;21.57;19.07;;;;;;;;;;5100915;28;20620;-86
2023/12/30 14:27:38;;;;;;;25.60;20.27;;;;;;;;;;5114256;28;20252;-85
2023/12/30 14:30:06;;;;;;;20.00;17.37;;;;;;;;;;5113346;28;20206;-86
2023/12/30 14:32:33;;;;;;;20.40;17.73;;;;;;;;;;5105839;28;20216;-86
2023/12/30 14:35:00;;;;;;;21.87;15.67;;;;;;;;;;5093502;28;20204;-86